^^
Your Local Weather - Clay, NY Station Historical Data
Daily Summary for November 8, 2017 Units:  English    Metric   Both
« Previous Day
Next Day »
Daily Weekly Monthly Yearly Custom
  High: Low: Average:
Temperature: 47.7 °F 22.8 °F 32.8 °F
Dew Point: 30.5 °F 20.6 °F 24.7 °F
Humidity: 93% 40% 75%
Wind Speed: 4.0mph 0.0mph 0.6mph
Wind Gust: 6.0mph - -
Wind- - South
Pressure: 30.32 in 30.19 in -
Precipitation: 0.01 in    
Historical Graphs
 
 
Tabular Data for November 8, 2017
Time Temperature Dew Point Pressure Wind Wind Speed Wind Gust Humidity Rainfall Rate (Hourly) solar
00:02 26.4 °F 23.6 °F 30.25 in Calm     89% 0.00 in 0 W/m2
00:08 26.2 °F 23.4 °F 30.25 in Calm     89% 0.00 in 0 W/m2
00:14 26.1 °F 23.3 °F 30.25 in Calm     89% 0.00 in 0 W/m2
00:20 26.0 °F 23.2 °F 30.25 in Calm     89% 0.00 in 0 W/m2
00:26 25.8 °F 23.0 °F 30.25 in Calm     89% 0.00 in 0 W/m2
00:32 25.8 °F 23.0 °F 30.25 in Calm     89% 0.00 in 0 W/m2
00:38 25.7 °F 22.9 °F 30.25 in Calm     89% 0.00 in 0 W/m2
00:44 25.7 °F 23.2 °F 30.25 in Calm     90% 0.00 in 0 W/m2
00:56 25.3 °F 22.5 °F 30.25 in Calm     89% 0.00 in 0 W/m2
01:02 25.3 °F 22.8 °F 30.25 in Calm     90% 0.00 in 0 W/m2
01:08 25.1 °F 22.3 °F 30.25 in Calm     89% 0.00 in 0 W/m2
01:14 25.1 °F 22.6 °F 30.24 in Calm     90% 0.00 in 0 W/m2
01:20 25.4 °F 22.9 °F 30.24 in Calm     90% 0.00 in 0 W/m2
01:26 25.5 °F 23.0 °F 30.24 in Calm     90% 0.00 in 0 W/m2
01:32 25.3 °F 22.8 °F 30.25 in Calm     90% 0.00 in 0 W/m2
01:38 25.2 °F 22.7 °F 30.24 in Calm     90% 0.00 in 0 W/m2
01:44 25.3 °F 22.8 °F 30.25 in Calm     90% 0.00 in 0 W/m2
01:50 25.1 °F 22.6 °F 30.25 in Calm     90% 0.00 in 0 W/m2
01:56 25.0 °F 22.5 °F 30.25 in Calm     90% 0.00 in 0 W/m2
02:03 24.9 °F 22.4 °F 30.25 in Calm     90% 0.00 in 0 W/m2
02:08 25.0 °F 22.5 °F 30.25 in Calm     90% 0.00 in 0 W/m2
02:14 25.0 °F 22.5 °F 30.25 in Calm     90% 0.00 in 0 W/m2
02:20 24.9 °F 22.4 °F 30.25 in Calm     90% 0.00 in 0 W/m2
02:26 24.9 °F 22.4 °F 30.25 in Calm     90% 0.00 in 0 W/m2
02:32 24.8 °F 22.3 °F 30.25 in Calm     90% 0.00 in 0 W/m2
02:44 24.4 °F 21.9 °F 30.25 in Calm     90% 0.00 in 0 W/m2
02:50 24.3 °F 22.1 °F 30.25 in Calm     91% 0.00 in 0 W/m2
02:56 24.1 °F 21.9 °F 30.25 in Calm     91% 0.00 in 0 W/m2
03:02 24.1 °F 21.9 °F 30.25 in Calm     91% 0.00 in 0 W/m2
03:08 24.1 °F 21.9 °F 30.26 in Calm     91% 0.00 in 0 W/m2
03:14 24.2 °F 22.0 °F 30.26 in Calm     91% 0.00 in 0 W/m2
03:20 24.2 °F 22.0 °F 30.26 in Calm     91% 0.00 in 0 W/m2
03:26 24.1 °F 21.9 °F 30.26 in Calm     91% 0.00 in 0 W/m2
03:34 23.9 °F 21.7 °F 30.26 in Calm     91% 0.00 in 0 W/m2
03:40 23.8 °F 21.6 °F 30.26 in Calm     91% 0.00 in 0 W/m2
03:46 23.7 °F 21.5 °F 30.26 in Calm     91% 0.00 in 0 W/m2
03:52 23.6 °F 21.4 °F 30.26 in Calm     91% 0.00 in 0 W/m2
03:58 23.5 °F 21.3 °F 30.26 in Calm     91% 0.00 in 0 W/m2
04:04 23.4 °F 21.2 °F 30.27 in Calm     91% 0.00 in 0 W/m2
04:10 23.3 °F 21.1 °F 30.27 in Calm     91% 0.00 in 0 W/m2
04:16 23.3 °F 21.1 °F 30.27 in Calm     91% 0.00 in 0 W/m2
04:22 23.3 °F 21.1 °F 30.27 in Calm     91% 0.00 in 0 W/m2
04:28 23.3 °F 21.1 °F 30.27 in Calm     91% 0.00 in 0 W/m2
04:34 23.3 °F 21.1 °F 30.27 in Calm     91% 0.00 in 0 W/m2
04:40 23.2 °F 21.0 °F 30.27 in Calm     91% 0.00 in 0 W/m2
04:46 23.3 °F 21.1 °F 30.27 in Calm     91% 0.00 in 0 W/m2
04:52 23.4 °F 21.2 °F 30.27 in Calm     91% 0.00 in 0 W/m2
04:59 23.5 °F 21.3 °F 30.27 in Calm     91% 0.00 in 0 W/m2
05:06 23.3 °F 21.1 °F 30.27 in Calm     91% 0.00 in 0 W/m2
05:12 23.2 °F 21.0 °F 30.27 in Calm     91% 0.00 in 0 W/m2
05:18 23.1 °F 20.9 °F 30.27 in Calm     91% 0.00 in 0 W/m2
05:24 23.0 °F 20.8 °F 30.27 in Calm     91% 0.00 in 0 W/m2
05:30 22.9 °F 20.7 °F 30.27 in Calm     91% 0.00 in 0 W/m2
05:36 23.0 °F 20.8 °F 30.28 in Calm     91% 0.00 in 0 W/m2
05:42 22.9 °F 20.7 °F 30.28 in Calm     91% 0.00 in 0 W/m2
05:48 23.1 °F 20.9 °F 30.28 in Calm     91% 0.00 in 0 W/m2
05:54 23.1 °F 20.9 °F 30.29 in Calm     91% 0.00 in 0 W/m2
06:00 23.0 °F 20.8 °F 30.29 in Calm     91% 0.00 in 0 W/m2
06:06 22.9 °F 20.7 °F 30.29 in Calm     91% 0.00 in 0 W/m2
06:12 22.8 °F 20.6 °F 30.30 in Calm     91% 0.00 in 0 W/m2
06:18 22.8 °F 20.6 °F 30.30 in Calm     91% 0.00 in 0 W/m2
06:24 22.8 °F 20.6 °F 30.31 in Calm     91% 0.00 in 0 W/m2
06:30 22.9 °F 20.7 °F 30.31 in Calm     91% 0.00 in 0 W/m2
06:36 22.8 °F 20.6 °F 30.31 in Calm     91% 0.00 in 0 W/m2
06:42 22.9 °F 20.7 °F 30.31 in Calm     91% 0.00 in 0 W/m2
06:48 22.8 °F 20.6 °F 30.31 in Calm     91% 0.00 in 5 W/m2
06:54 22.8 °F 20.6 °F 30.31 in Calm     91% 0.00 in 7 W/m2
07:00 22.9 °F 20.9 °F 30.31 in Calm     92% 0.00 in 9 W/m2
07:06 23.1 °F 21.1 °F 30.32 in Calm     92% 0.00 in 12 W/m2
07:12 23.3 °F 21.3 °F 30.32 in Calm     92% 0.00 in 16 W/m2
07:18 23.5 °F 21.5 °F 30.32 in Calm     92% 0.00 in 19 W/m2
07:26 23.5 °F 21.5 °F 30.32 in Calm     92% 0.00 in 25 W/m2
07:32 23.7 °F 21.7 °F 30.32 in Calm     92% 0.00 in 40 W/m2
07:38 24.0 °F 22.0 °F 30.32 in Calm     92% 0.00 in 70 W/m2
07:46 24.6 °F 22.6 °F 30.32 in Calm     92% 0.00 in 84 W/m2
07:52 25.7 °F 23.7 °F 30.32 in Calm     92% 0.00 in 109 W/m2
07:58 26.8 °F 24.8 °F 30.32 in Calm   1.0 mph 92% 0.00 in 155 W/m2
08:04 28.3 °F 26.5 °F 30.32 in Calm   1.0 mph 93% 0.00 in 148 W/m2
08:10 29.1 °F 27.3 °F 30.32 in North 1.0 mph 1.0 mph 93% 0.00 in 230 W/m2
08:16 30.0 °F 28.2 °F 30.32 in Calm   1.0 mph 93% 0.00 in 262 W/m2
08:22 30.4 °F 28.4 °F 30.32 in SE 1.0 mph 1.0 mph 92% 0.00 in 264 W/m2
08:28 31.1 °F 28.5 °F 30.31 in Calm   1.0 mph 90% 0.00 in 274 W/m2
08:34 31.6 °F 28.5 °F 30.31 in SE 1.0 mph 3.0 mph 88% 0.00 in 278 W/m2
08:40 32.1 °F 28.4 °F 30.31 in SE 1.0 mph 3.0 mph 86% 0.00 in 294 W/m2
08:46 32.7 °F 28.7 °F 30.31 in SE 2.0 mph 3.0 mph 85% 0.00 in 309 W/m2
08:52 32.9 °F 28.3 °F 30.31 in SE 1.0 mph 2.0 mph 83% 0.00 in 323 W/m2
08:58 33.5 °F 28.6 °F 30.31 in SE 2.0 mph 3.0 mph 82% 0.00 in 339 W/m2
09:04 33.7 °F 28.5 °F 30.31 in SSE 3.0 mph 5.0 mph 81% 0.00 in 360 W/m2
09:10 34.1 °F 28.3 °F 30.31 in SSE 3.0 mph 5.0 mph 79% 0.00 in 367 W/m2
09:16 34.6 °F 28.4 °F 30.31 in SSE 4.0 mph 5.0 mph 78% 0.00 in 381 W/m2
09:22 35.1 °F 28.0 °F 30.31 in SE 3.0 mph 5.0 mph 75% 0.00 in 403 W/m2
09:28 35.8 °F 28.6 °F 30.31 in SE 3.0 mph 5.0 mph 75% 0.00 in 425 W/m2
09:34 36.2 °F 28.4 °F 30.31 in South 3.0 mph 3.0 mph 73% 0.00 in 452 W/m2
09:40 36.6 °F 29.4 °F 30.31 in SE 3.0 mph 3.0 mph 75% 0.00 in 454 W/m2
09:46 37.1 °F 28.9 °F 30.31 in SSE 3.0 mph 3.0 mph 72% 0.00 in 497 W/m2
09:58 38.1 °F 29.5 °F 30.31 in SSE 1.0 mph 4.0 mph 71% 0.00 in 446 W/m2
10:04 38.6 °F 29.7 °F 30.31 in SSE 2.0 mph 3.0 mph 70% 0.00 in 566 W/m2
10:10 38.6 °F 29.3 °F 30.30 in SSE 2.0 mph 2.0 mph 69% 0.00 in 364 W/m2
10:16 39.2 °F 29.2 °F 30.30 in SW 2.0 mph 5.0 mph 67% 0.00 in 563 W/m2
10:22 39.9 °F 30.5 °F 30.30 in South 2.0 mph 4.0 mph 69% 0.00 in 536 W/m2
10:28 40.4 °F 29.2 °F 30.30 in SSE 2.0 mph 4.0 mph 64% 0.00 in 357 W/m2
10:42 40.6 °F 26.1 °F 30.30 in SE 2.0 mph 2.0 mph 56% 0.00 in 434 W/m2
10:48 41.4 °F 27.7 °F 30.30 in SW 2.0 mph 4.0 mph 58% 0.00 in 439 W/m2
10:54 41.5 °F 26.5 °F 30.30 in South 3.0 mph 5.0 mph 55% 0.00 in 448 W/m2
11:00 41.6 °F 26.6 °F 30.30 in SSE 3.0 mph 3.0 mph 55% 0.00 in 397 W/m2
11:06 41.9 °F 26.4 °F 30.29 in SSE 2.0 mph 3.0 mph 54% 0.00 in 461 W/m2
11:12 41.8 °F 25.9 °F 30.29 in ENE 2.0 mph 4.0 mph 53% 0.00 in 452 W/m2
11:18 42.7 °F 26.3 °F 30.29 in SSE 3.0 mph 6.0 mph 52% 0.00 in 415 W/m2
11:24 42.4 °F 26.9 °F 30.29 in ESE 3.0 mph 4.0 mph 54% 0.00 in 459 W/m2
11:30 43.0 °F 27.5 °F 30.29 in SSE 2.0 mph 4.0 mph 54% 0.00 in 408 W/m2
11:36 43.0 °F 26.6 °F 30.28 in SSW 3.0 mph 4.0 mph 52% 0.00 in 564 W/m2
11:42 43.5 °F 27.5 °F 30.28 in South 2.0 mph 5.0 mph 53% 0.00 in 506 W/m2
11:48 43.6 °F 27.1 °F 30.27 in South 2.0 mph 5.0 mph 52% 0.00 in 554 W/m2
11:54 43.9 °F 27.4 °F 30.27 in SE 2.0 mph 2.0 mph 52% 0.00 in 536 W/m2
12:00 44.2 °F 29.0 °F 30.27 in ESE 2.0 mph 2.0 mph 55% 0.00 in 533 W/m2
12:06 44.8 °F 27.8 °F 30.26 in East 2.0 mph 3.0 mph 51% 0.00 in 517 W/m2
12:18 44.8 °F 25.3 °F 30.26 in ENE 2.0 mph 4.0 mph 46% 0.00 in 529 W/m2
12:24 44.3 °F 27.3 °F 30.26 in SSE 3.0 mph 3.0 mph 51% 0.00 in 527 W/m2
12:30 45.1 °F 27.1 °F 30.26 in SSE 2.0 mph 2.0 mph 49% 0.00 in 538 W/m2
12:36 44.9 °F 26.4 °F 30.26 in SE 3.0 mph 6.0 mph 48% 0.00 in 584 W/m2
12:42 45.9 °F 26.8 °F 30.25 in ESE 3.0 mph 6.0 mph 47% 0.00 in 612 W/m2
12:48 45.9 °F 27.3 °F 30.25 in SE 3.0 mph 5.0 mph 48% 0.00 in 591 W/m2
12:54 45.5 °F 26.4 °F 30.25 in SE 2.0 mph 2.0 mph 47% 0.00 in 378 W/m2
13:06 45.1 °F 26.6 °F 30.24 in SSE 3.0 mph 5.0 mph 48% 0.00 in 536 W/m2
13:12 45.6 °F 26.0 °F 30.24 in SSE 2.0 mph 2.0 mph 46% 0.00 in 353 W/m2
13:18 45.1 °F 26.1 °F 30.24 in SW 1.0 mph 2.0 mph 47% 0.00 in 425 W/m2
13:24 45.9 °F 24.6 °F 30.24 in SW 1.0 mph 1.0 mph 43% 0.00 in 492 W/m2
13:30 46.8 °F 28.1 °F 30.24 in Calm   2.0 mph 48% 0.00 in 483 W/m2
13:36 47.0 °F 26.7 °F 30.23 in SW 1.0 mph 2.0 mph 45% 0.00 in 471 W/m2
13:42 46.7 °F 24.8 °F 30.23 in SW 1.0 mph 1.0 mph 42% 0.00 in 459 W/m2
13:48 47.3 °F 26.5 °F 30.23 in SW 1.0 mph 2.0 mph 44% 0.00 in 439 W/m2
13:54 46.3 °F 25.0 °F 30.23 in SW 1.0 mph 1.0 mph 43% 0.00 in 427 W/m2
14:00 46.5 °F 26.3 °F 30.23 in SSW 1.0 mph 4.0 mph 45% 0.00 in 417 W/m2
14:06 47.6 °F 28.3 °F 30.23 in SSW 2.0 mph 4.0 mph 47% 0.00 in 397 W/m2
14:12 47.1 °F 25.2 °F 30.23 in SSW 1.0 mph 2.0 mph 42% 0.00 in 401 W/m2
14:18 47.7 °F 24.5 °F 30.23 in SSW 1.0 mph 2.0 mph 40% 0.00 in 376 W/m2
14:24 46.9 °F 25.0 °F 30.22 in South 1.0 mph 3.0 mph 42% 0.00 in 58 W/m2
14:30 45.7 °F 23.3 °F 30.22 in South 1.0 mph 1.0 mph 41% 0.00 in 123 W/m2
14:36 46.5 °F 25.2 °F 30.22 in South 1.0 mph 3.0 mph 43% 0.00 in 352 W/m2
14:42 47.5 °F 24.9 °F 30.22 in South 1.0 mph 1.0 mph 41% 0.00 in 345 W/m2
14:48 47.7 °F 26.3 °F 30.22 in Calm   1.0 mph 43% 0.00 in 322 W/m2
14:54 46.9 °F 24.4 °F 30.22 in Calm   1.0 mph 41% 0.00 in 306 W/m2
15:00 46.8 °F 23.7 °F 30.22 in SSW 1.0 mph 2.0 mph 40% 0.00 in 288 W/m2
15:06 46.9 °F 25.0 °F 30.22 in WSW 2.0 mph 2.0 mph 42% 0.00 in 269 W/m2
15:12 46.7 °F 23.6 °F 30.22 in SSE 1.0 mph 2.0 mph 40% 0.00 in 251 W/m2
15:18 46.8 °F 24.3 °F 30.22 in South 1.0 mph 2.0 mph 41% 0.00 in 236 W/m2
15:24 46.5 °F 24.0 °F 30.22 in South 2.0 mph 3.0 mph 41% 0.00 in 221 W/m2
15:30 46.3 °F 23.9 °F 30.22 in SSW 1.0 mph 1.0 mph 41% 0.00 in 204 W/m2
15:36 45.8 °F 24.5 °F 30.22 in SSW 1.0 mph 3.0 mph 43% 0.00 in 186 W/m2
15:42 45.9 °F 23.5 °F 30.22 in SSW 1.0 mph 2.0 mph 41% 0.00 in 30 W/m2
15:48 45.7 °F 23.9 °F 30.21 in SSW 1.0 mph 2.0 mph 42% 0.00 in 28 W/m2
15:54 45.5 °F 24.3 °F 30.21 in Calm   2.0 mph 43% 0.00 in 26 W/m2
16:00 45.2 °F 24.0 °F 30.21 in South 1.0 mph 1.0 mph 43% 0.00 in 25 W/m2
16:06 45.0 °F 23.8 °F 30.21 in South 1.0 mph 2.0 mph 43% 0.00 in 23 W/m2
16:12 44.8 °F 23.6 °F 30.21 in Calm     43% 0.00 in 21 W/m2
16:18 44.7 °F 23.5 °F 30.21 in Calm   4.0 mph 43% 0.00 in 18 W/m2
16:24 44.5 °F 23.9 °F 30.21 in Calm   2.0 mph 44% 0.00 in 16 W/m2
16:30 44.1 °F 24.6 °F 30.21 in South 1.0 mph 1.0 mph 46% 0.00 in 14 W/m2
16:36 43.7 °F 24.2 °F 30.21 in South 1.0 mph 1.0 mph 46% 0.00 in 11 W/m2
16:48 42.8 °F 25.4 °F 30.22 in Calm     50% 0.00 in 5 W/m2
16:54 42.0 °F 27.4 °F 30.21 in Calm     56% 0.00 in 0 W/m2
17:00 40.9 °F 27.7 °F 30.21 in Calm     59% 0.00 in 0 W/m2
17:06 40.1 °F 27.3 °F 30.21 in Calm     60% 0.00 in 0 W/m2
17:12 39.3 °F 27.4 °F 30.22 in Calm     62% 0.00 in 0 W/m2
17:18 38.6 °F 27.5 °F 30.21 in Calm     64% 0.00 in 0 W/m2
17:24 37.9 °F 26.8 °F 30.21 in Calm     64% 0.00 in 0 W/m2
17:30 37.5 °F 26.8 °F 30.21 in Calm     65% 0.00 in 0 W/m2
17:36 37.1 °F 26.4 °F 30.22 in Calm     65% 0.00 in 0 W/m2
17:42 36.7 °F 26.4 °F 30.22 in Calm     66% 0.00 in 0 W/m2
17:48 36.1 °F 26.2 °F 30.22 in Calm     67% 0.00 in 0 W/m2
17:54 35.8 °F 25.9 °F 30.23 in Calm     67% 0.00 in 0 W/m2
18:00 35.5 °F 26.0 °F 30.23 in Calm     68% 0.00 in 0 W/m2
18:06 35.2 °F 26.0 °F 30.23 in Calm     69% 0.00 in 0 W/m2
18:12 34.9 °F 26.1 °F 30.23 in Calm     70% 0.00 in 0 W/m2
18:18 34.6 °F 26.2 °F 30.23 in Calm     71% 0.00 in 0 W/m2
18:24 34.3 °F 26.2 °F 30.23 in Calm     72% 0.00 in 0 W/m2
18:30 33.9 °F 26.2 °F 30.23 in Calm     73% 0.00 in 0 W/m2
18:36 33.6 °F 26.5 °F 30.23 in Calm     75% 0.00 in 0 W/m2
18:42 33.4 °F 27.0 °F 30.23 in Calm     77% 0.00 in 0 W/m2
18:48 33.1 °F 26.7 °F 30.24 in Calm     77% 0.00 in 0 W/m2
18:54 32.9 °F 26.5 °F 30.24 in Calm     77% 0.00 in 0 W/m2
19:00 32.7 °F 26.3 °F 30.24 in Calm     77% 0.00 in 0 W/m2
19:06 32.5 °F 26.1 °F 30.24 in Calm     77% 0.00 in 0 W/m2
19:12 32.3 °F 25.9 °F 30.24 in Calm     77% 0.00 in 0 W/m2
19:18 32.1 °F 26.0 °F 30.24 in Calm     78% 0.00 in 0 W/m2
19:24 31.9 °F 25.8 °F 30.24 in Calm     78% 0.00 in 0 W/m2
19:30 31.8 °F 25.7 °F 30.24 in Calm     78% 0.00 in 0 W/m2
19:36 31.8 °F 25.7 °F 30.24 in Calm     78% 0.00 in 0 W/m2
19:42 31.6 °F 25.8 °F 30.24 in Calm     79% 0.00 in 0 W/m2
19:48 31.2 °F 25.4 °F 30.24 in Calm     79% 0.00 in 0 W/m2
19:54 30.9 °F 25.5 °F 30.24 in Calm     80% 0.00 in 0 W/m2
20:00 30.7 °F 25.3 °F 30.24 in Calm     80% 0.00 in 0 W/m2
20:06 30.5 °F 25.4 °F 30.24 in Calm     81% 0.00 in 0 W/m2
20:12 30.3 °F 25.2 °F 30.24 in Calm     81% 0.00 in 0 W/m2
20:18 30.1 °F 25.3 °F 30.24 in Calm     82% 0.00 in 0 W/m2
20:24 30.0 °F 25.2 °F 30.24 in Calm     82% 0.00 in 0 W/m2
20:30 30.0 °F 25.2 °F 30.24 in Calm     82% 0.00 in 0 W/m2
20:36 29.9 °F 25.4 °F 30.24 in Calm     83% 0.00 in 0 W/m2
20:42 29.7 °F 25.2 °F 30.24 in Calm     83% 0.00 in 0 W/m2
20:48 29.6 °F 25.1 °F 30.24 in Calm     83% 0.00 in 0 W/m2
20:54 29.4 °F 25.2 °F 30.23 in Calm     84% 0.00 in 0 W/m2
21:00 29.4 °F 25.2 °F 30.23 in Calm   1.0 mph 84% 0.00 in 0 W/m2
21:06 29.3 °F 25.1 °F 30.23 in Calm   1.0 mph 84% 0.00 in 0 W/m2
21:12 29.2 °F 25.0 °F 30.23 in Calm     84% 0.00 in 0 W/m2
21:18 29.3 °F 25.4 °F 30.23 in Calm     85% 0.00 in 0 W/m2
21:24 29.3 °F 25.6 °F 30.22 in Calm     86% 0.00 in 0 W/m2
21:30 29.2 °F 25.3 °F 30.22 in Calm     85% 0.00 in 0 W/m2
21:36 29.0 °F 25.3 °F 30.22 in Calm     86% 0.00 in 0 W/m2
21:42 29.0 °F 25.3 °F 30.21 in Calm     86% 0.00 in 0 W/m2
21:48 29.0 °F 25.3 °F 30.21 in Calm     86% 0.00 in 0 W/m2
21:54 29.0 °F 25.3 °F 30.21 in Calm     86% 0.00 in 0 W/m2
22:00 28.9 °F 25.5 °F 30.21 in Calm     87% 0.00 in 0 W/m2
22:06 28.7 °F 25.3 °F 30.21 in Calm     87% 0.00 in 0 W/m2
22:20 28.2 °F 24.8 °F 30.21 in Calm     87% 0.00 in 0 W/m2
22:26 28.0 °F 24.6 °F 30.21 in Calm     87% 0.00 in 0 W/m2
22:32 27.9 °F 24.5 °F 30.21 in Calm     87% 0.00 in 0 W/m2
22:38 27.8 °F 24.4 °F 30.21 in Calm     87% 0.00 in 0 W/m2
22:40 27.8 °F 24.4 °F 30.21 in Calm     87% 0.00 in 0 W/m2
22:46 27.7 °F 24.3 °F 30.20 in Calm     87% 0.00 in 0 W/m2
22:52 27.6 °F 24.5 °F 30.20 in Calm     88% 0.00 in 0 W/m2
22:58 27.7 °F 24.6 °F 30.20 in Calm     88% 0.00 in 0 W/m2
23:04 27.8 °F 24.7 °F 30.20 in Calm     88% 0.00 in 0 W/m2
23:08 27.8 °F 24.7 °F 30.20 in Calm     88% 0.00 in 0 W/m2
23:10 27.8 °F 24.7 °F 30.20 in Calm     88% 0.00 in 0 W/m2
23:16 27.7 °F 24.6 °F 30.19 in Calm     88% 0.00 in 0 W/m2
23:22 27.6 °F 24.5 °F 30.19 in Calm     88% 0.00 in 0 W/m2
23:28 27.3 °F 24.2 °F 30.19 in Calm     88% 0.00 in 0 W/m2
23:34 27.1 °F 24.0 °F 30.20 in Calm     88% 0.00 in 0 W/m2
23:40 27.2 °F 24.4 °F 30.19 in Calm     89% 0.00 in 0 W/m2
23:46 27.4 °F 24.6 °F 30.19 in Calm     89% 0.00 in 0 W/m2
23:54 27.4 °F 24.6 °F 30.19 in Calm     89% 0.00 in 0 W/m2
Country Meadow, Clay, NY, USA
Compliments of Weather Underground - 2 mb